Time;durP1;ratioP1;P1;durP2;ratioP2;P2;SDS_P1;SDS_P2;PMS_P1;PMS_P2;Temp;Humidity;BMP_temperature;BMP_pressure;BME280_temperature;BME280_humidity;BME280_pressure;Samples;Min_cycle;Max_cycle;Signal;HPM_P1;HPM_P2
2024/01/01 00:01:45;;;;;;;5.87;3.47;;;;;;;9.13;69.56;99701.28;5012395;28;20211;-79
2024/01/01 00:04:12;;;;;;;3.73;2.83;;;;;;;8.85;69.92;99699.34;5011764;28;20207;-79
2024/01/01 00:06:38;;;;;;;4.67;3.20;;;;;;;8.94;70.36;99690.47;5020589;28;20226;-78
2024/01/01 00:09:06;;;;;;;5.57;2.87;;;;;;;9.02;70.71;99675.53;5022121;28;20999;-80
2024/01/01 00:11:32;;;;;;;6.13;3.40;;;;;;;9.09;69.83;99689.22;5019897;28;20229;-80
2024/01/01 00:13:59;;;;;;;5.07;3.17;;;;;;;9.20;69.58;99694.19;5024994;28;20248;-80
2024/01/01 00:16:25;;;;;;;6.53;3.77;;;;;;;9.18;69.52;99695.94;5021467;28;20223;-80
2024/01/01 00:18:52;;;;;;;7.43;3.63;;;;;;;9.26;69.37;99692.25;5020186;28;20215;-79
2024/01/01 00:21:21;;;;;;;7.17;3.33;;;;;;;9.28;69.40;99690.47;5022044;28;20257;-79
2024/01/01 00:23:47;;;;;;;4.57;4.10;;;;;;;8.97;70.03;99694.75;5014130;28;20237;-79
2024/01/01 00:26:15;;;;;;;3.37;2.73;;;;;;;9.15;69.71;99686.47;5012309;28;20219;-80
2024/01/01 00:28:41;;;;;;;4.53;3.43;;;;;;;9.19;69.90;99690.69;5021702;28;20211;-80
2024/01/01 00:31:09;;;;;;;2.87;2.57;;;;;;;9.13;69.88;99694.31;5013908;28;20618;-81
2024/01/01 00:33:36;;;;;;;3.53;3.03;;;;;;;9.23;69.98;99666.28;5010839;28;20214;-79
2024/01/01 00:36:02;;;;;;;2.90;2.30;;;;;;;9.20;69.84;99675.94;5011313;28;20238;-79
2024/01/01 00:38:28;;;;;;;3.23;2.07;;;;;;;9.17;69.71;99681.22;5011603;28;20210;-79
2024/01/01 00:40:54;;;;;;;3.50;2.80;;;;;;;9.13;70.14;99690.84;5011162;28;20268;-80
2024/01/01 00:43:22;;;;;;;4.63;2.03;;;;;;;9.30;69.90;99667.84;5011805;28;20287;-79
2024/01/01 00:45:48;;;;;;;2.00;1.80;;;;;;;9.30;69.57;99675.66;5011137;28;21024;-79
2024/01/01 00:48:16;;;;;;;3.87;1.90;;;;;;;9.40;69.51;99671.06;5010992;28;20210;-79
2024/01/01 00:50:43;;;;;;;2.97;1.93;;;;;;;9.22;70.04;99674.16;5011571;28;20616;-80
2024/01/01 00:53:10;;;;;;;4.37;2.00;;;;;;;9.26;70.22;99670.59;5009740;28;20211;-79
2024/01/01 00:55:37;;;;;;;3.10;1.87;;;;;;;9.22;69.93;99663.75;5015112;28;20223;-80
2024/01/01 00:58:06;;;;;;;4.23;3.30;;;;;;;9.11;70.23;99667.47;5012251;28;20265;-80
2024/01/01 01:00:33;;;;;;;11.03;8.30;;;;;;;9.18;70.58;99656.88;5016519;28;20852;-80
2024/01/01 01:02:59;;;;;;;8.00;3.57;;;;;;;9.22;70.32;99667.19;5011318;28;20214;-80
2024/01/01 01:05:26;;;;;;;19.23;14.47;;;;;;;9.40;70.00;99671.06;5010909;28;20226;-79
2024/01/01 01:07:53;;;;;;;3.30;3.00;;;;;;;9.16;69.68;99677.78;5012932;28;20695;-80
2024/01/01 01:10:19;;;;;;;7.03;3.60;;;;;;;9.28;70.36;99672.25;5021304;28;20238;-80
2024/01/01 01:12:45;;;;;;;3.60;2.70;;;;;;;9.25;70.33;99674.06;5022707;28;20223;-80
2024/01/01 01:15:11;;;;;;;2.47;1.90;;;;;;;9.13;70.81;99672.63;5020284;28;20224;-81
2024/01/01 01:17:39;;;;;;;4.03;3.63;;;;;;;9.28;70.66;99658.38;5021579;28;20214;-80
2024/01/01 01:20:07;;;;;;;3.67;2.63;;;;;;;9.14;70.84;99659.59;5022367;28;20256;-80
2024/01/01 01:22:33;;;;;;;4.30;2.90;;;;;;;9.18;70.77;99660.38;5023292;28;20726;-81
2024/01/01 01:24:59;;;;;;;3.23;2.43;;;;;;;9.26;70.29;99663.63;5018671;28;20733;-80
2024/01/01 01:27:26;;;;;;;3.77;3.37;;;;;;;9.24;70.35;99667.16;5021036;28;20252;-81
2024/01/01 01:29:52;;;;;;;3.77;2.73;;;;;;;9.18;70.61;99675.09;5022539;28;20260;-80
2024/01/01 01:32:18;;;;;;;3.53;1.97;;;;;;;9.02;70.94;99675.53;5024443;28;20276;-80
2024/01/01 01:34:46;;;;;;;4.07;1.93;;;;;;;9.01;71.11;99659.94;5016074;28;20235;-80
2024/01/01 01:37:13;;;;;;;3.13;2.33;;;;;;;9.24;70.34;99667.16;5022952;28;20638;-80
2024/01/01 01:39:39;;;;;;;5.63;2.40;;;;;;;9.13;69.81;99676.09;5023468;28;20280;-81
2024/01/01 01:42:07;;;;;;;4.70;3.00;;;;;;;9.25;70.61;99663.66;5024671;28;20242;-81
2024/01/01 01:44:34;;;;;;;4.53;3.57;;;;;;;9.37;70.07;99672.91;5024642;28;20711;-81
2024/01/01 01:47:01;;;;;;;3.67;2.20;;;;;;;9.23;70.95;99678.47;5016038;28;20213;-80
2024/01/01 01:49:27;;;;;;;3.50;2.63;;;;;;;9.35;70.41;99678.13;5015262;28;20207;-80
2024/01/01 01:51:55;;;;;;;4.10;2.97;;;;;;;9.39;70.25;99684.13;5014526;28;20215;-80
2024/01/01 01:54:24;;;;;;;4.37;3.00;;;;;;;9.21;70.57;99695.88;5014175;28;20292;-80
2024/01/01 01:56:50;;;;;;;3.83;2.37;;;;;;;9.21;70.79;99678.50;5013420;28;20234;-80
2024/01/01 01:59:17;;;;;;;3.23;2.33;;;;;;;9.08;70.64;99679.72;5015094;28;20202;-80
2024/01/01 02:01:44;;;;;;;3.67;2.60;;;;;;;9.16;71.01;99675.16;5014444;28;20212;-80
2024/01/01 02:04:10;;;;;;;3.63;2.53;;;;;;;9.26;70.56;99665.38;5014292;28;20234;-80
2024/01/01 02:06:37;;;;;;;4.67;3.37;;;;;;;9.28;70.27;99663.59;5014125;28;20223;-80
2024/01/01 02:09:06;;;;;;;3.80;3.17;;;;;;;9.20;70.65;99675.94;5013571;28;20209;-80
2024/01/01 02:11:32;;;;;;;5.10;2.67;;;;;;;9.15;70.43;99671.69;5013727;28;20210;-79
2024/01/01 02:14:09;;;;;;;3.43;2.30;;;;;;;9.38;70.03;99669.41;5010172;28;20223;-80
2024/01/01 02:16:35;;;;;;;3.73;2.57;;;;;;;9.31;69.99;99676.50;5014295;28;20645;-80
2024/01/01 02:19:02;;;;;;;3.13;2.70;;;;;;;9.38;70.22;99679.81;5013551;28;20207;-80
2024/01/01 02:21:30;;;;;;;3.47;2.77;;;;;;;9.45;69.64;99678.75;5014766;28;20218;-80
2024/01/01 02:23:58;;;;;;;6.97;3.00;;;;;;;9.37;69.62;99694.56;5014125;28;20294;-80
2024/01/01 02:26:24;;;;;;;2.83;2.40;;;;;;;9.45;69.61;99689.16;5015522;28;20227;-80
2024/01/01 02:28:50;;;;;;;2.30;2.10;;;;;;;9.56;69.35;99700.16;5019037;28;20207;-79
2024/01/01 02:31:17;;;;;;;3.93;2.70;;;;;;;9.58;69.45;99703.59;5009222;28;20264;-81
2024/01/01 02:33:43;;;;;;;5.37;2.50;;;;;;;9.61;69.43;99695.66;5016673;28;20210;-81
2024/01/01 02:36:09;;;;;;;4.57;2.60;;;;;;;9.56;69.23;99707.16;5017497;28;20235;-80
2024/01/01 02:38:36;;;;;;;3.27;2.77;;;;;;;9.56;69.19;99712.34;5017653;28;20202;-81
2024/01/01 02:41:04;;;;;;;4.40;2.63;;;;;;;9.46;70.06;99693.50;5016898;28;20266;-81
2024/01/01 02:43:30;;;;;;;4.20;3.00;;;;;;;9.49;69.80;99696.88;5016305;28;20203;-80
2024/01/01 02:45:56;;;;;;;3.27;2.77;;;;;;;9.34;69.83;99703.34;5015197;28;20227;-80
2024/01/01 02:48:23;;;;;;;4.20;2.87;;;;;;;9.49;69.81;99696.00;5016392;28;20211;-80
2024/01/01 02:50:49;;;;;;;4.27;2.73;;;;;;;9.50;69.80;99690.75;5017419;28;20218;-80
2024/01/01 02:53:15;;;;;;;5.33;2.93;;;;;;;9.45;69.29;99707.41;5016172;28;20255;-80
2024/01/01 02:55:42;;;;;;;6.53;2.93;;;;;;;9.37;69.41;99712.81;5016586;28;20234;-80
2024/01/01 02:58:09;;;;;;;3.10;2.73;;;;;;;9.14;69.48;99714.25;5017121;28;20559;-81
2024/01/01 03:00:36;;;;;;;4.30;2.83;;;;;;;9.40;69.53;99699.72;5017439;28;20264;-80
2024/01/01 03:03:03;;;;;;;4.87;2.90;;;;;;;9.38;69.69;99711.09;5016054;28;20211;-79
2024/01/01 03:05:29;;;;;;;4.30;2.70;;;;;;;9.44;69.38;99716.13;5016062;28;20237;-80
2024/01/01 03:07:55;;;;;;;4.70;3.23;;;;;;;9.47;69.75;99708.22;5017262;28;20223;-80
2024/01/01 03:10:22;;;;;;;5.37;3.40;;;;;;;9.14;70.24;99722.06;5018253;28;20748;-80
2024/01/01 03:12:48;;;;;;;4.70;2.73;;;;;;;9.31;69.81;99695.59;5021910;28;20207;-80
2024/01/01 03:15:16;;;;;;;4.27;3.00;;;;;;;9.33;69.41;99709.44;5016923;28;20230;-81
2024/01/01 03:17:45;;;;;;;4.10;3.10;;;;;;;9.32;70.39;99707.72;5015536;28;20236;-80
2024/01/01 03:20:12;;;;;;;4.07;2.77;;;;;;;9.29;70.07;99705.19;5016304;28;20214;-80
2024/01/01 03:22:38;;;;;;;6.43;3.67;;;;;;;9.43;70.33;99690.97;5016937;28;20257;-80
2024/01/01 03:25:07;;;;;;;4.93;3.10;;;;;;;9.36;69.94;99705.91;5016212;28;20290;-81
2024/01/01 03:27:33;;;;;;;6.00;3.73;;;;;;;9.31;70.22;99689.53;5018178;28;20245;-80
2024/01/01 03:30:00;;;;;;;4.70;3.60;;;;;;;9.37;70.18;99696.34;5017063;28;20218;-81
2024/01/01 03:32:27;;;;;;;4.57;3.60;;;;;;;9.18;70.07;99703.75;5016842;28;20203;-80
2024/01/01 03:34:54;;;;;;;6.80;4.07;;;;;;;9.35;70.36;99696.38;5017884;28;20235;-81
2024/01/01 03:37:20;;;;;;;4.83;3.97;;;;;;;9.15;69.83;99704.69;5016424;28;20253;-79
2024/01/01 03:39:46;;;;;;;4.33;3.70;;;;;;;9.25;70.42;99697.50;5017653;28;20231;-79
2024/01/01 03:42:14;;;;;;;5.73;4.17;;;;;;;9.31;70.56;99681.72;5014984;28;20211;-79
2024/01/01 03:44:40;;;;;;;6.07;4.60;;;;;;;9.39;70.13;99687.56;5017199;28;20298;-81
2024/01/01 03:47:06;;;;;;;5.87;3.90;;;;;;;9.39;70.56;99686.72;5015929;28;20268;-80
2024/01/01 03:49:34;;;;;;;3.90;3.60;;;;;;;9.30;70.18;99693.91;5017425;28;20207;-81
2024/01/01 03:52:00;;;;;;;6.37;3.60;;;;;;;9.34;70.36;99672.09;5016333;28;20673;-80
2024/01/01 03:54:27;;;;;;;5.87;3.90;;;;;;;9.38;70.33;99667.66;5016106;28;20203;-81
2024/01/01 03:56:54;;;;;;;3.83;3.40;;;;;;;9.33;70.42;99683.38;5016584;28;20235;-80
2024/01/01 03:59:21;;;;;;;5.93;4.37;;;;;;;9.41;70.65;99675.38;5017092;28;20248;-80
2024/01/01 04:01:47;;;;;;;4.07;3.43;;;;;;;9.38;70.31;99674.63;5016291;28;20265;-81
2024/01/01 04:04:13;;;;;;;4.00;3.60;;;;;;;9.45;70.24;99663.97;5016490;28;20206;-81
2024/01/01 04:06:41;;;;;;;4.80;3.60;;;;;;;9.46;70.64;99664.84;5015989;28;20616;-80
2024/01/01 04:09:07;;;;;;;5.83;4.17;;;;;;;9.36;70.30;99671.19;5015619;28;20257;-81
2024/01/01 04:11:34;;;;;;;4.90;3.50;;;;;;;9.28;70.37;99668.78;5016390;28;20215;-81
2024/01/01 04:14:01;;;;;;;6.10;3.50;;;;;;;9.36;70.76;99659.03;5016923;28;20268;-80
2024/01/01 04:16:28;;;;;;;3.87;3.47;;;;;;;9.42;70.20;99669.28;5015533;28;20253;-80
2024/01/01 04:18:54;;;;;;;4.23;3.40;;;;;;;9.15;70.55;99669.09;5014940;28;20214;-80
2024/01/01 04:21:20;;;;;;;4.30;3.97;;;;;;;9.20;70.23;99666.38;5016114;28;20444;-80
2024/01/01 04:23:48;;;;;;;4.63;3.37;;;;;;;9.09;69.88;99673.59;5016711;28;20708;-80
2024/01/01 04:26:15;;;;;;;5.07;3.57;;;;;;;9.16;70.94;99659.56;5015968;28;20297;-80
2024/01/01 04:28:42;;;;;;;4.40;3.60;;;;;;;9.13;71.00;99649.19;5017272;28;20203;-80
2024/01/01 04:31:08;;;;;;;5.23;4.00;;;;;;;9.14;70.35;99645.72;5016051;28;20214;-80
2024/01/01 04:33:34;;;;;;;5.37;3.70;;;;;;;9.09;70.88;99639.75;5016276;28;20207;-80
2024/01/01 04:36:01;;;;;;;4.03;3.63;;;;;;;9.12;70.62;99624.91;5014335;28;20231;-80
2024/01/01 04:38:27;;;;;;;6.50;4.10;;;;;;;9.08;70.59;99627.66;5009497;28;20203;-79
2024/01/01 04:40:55;;;;;;;4.63;3.50;;;;;;;9.00;70.52;99633.06;5021717;28;20214;-79
2024/01/01 04:43:21;;;;;;;6.03;3.80;;;;;;;9.00;70.66;99634.78;5015714;28;20203;-79
2024/01/01 04:45:47;;;;;;;4.83;3.57;;;;;;;8.79;70.90;99637.03;5014473;28;20223;-81
2024/01/01 04:48:14;;;;;;;6.03;4.23;;;;;;;8.91;71.01;99628.91;5014596;28;20432;-81
2024/01/01 04:50:40;;;;;;;4.60;3.90;;;;;;;9.02;70.87;99618.25;5015784;28;20268;-80
2024/01/01 04:53:06;;;;;;;5.33;3.77;;;;;;;9.05;70.70;99615.56;5014824;28;20654;-80
2024/01/01 04:55:33;;;;;;;7.67;4.17;;;;;;;9.08;70.74;99618.09;5015531;28;20277;-80
2024/01/01 04:58:01;;;;;;;4.77;3.80;;;;;;;9.02;71.67;99617.38;5014766;28;20211;-80
2024/01/01 05:00:28;;;;;;;5.80;4.37;;;;;;;8.94;71.72;99605.44;5015715;28;20203;-80
2024/01/01 05:02:56;;;;;;;5.00;3.90;;;;;;;8.99;72.10;99583.63;5016218;28;20206;-81
2024/01/01 05:05:22;;;;;;;8.00;5.30;;;;;;;8.90;72.06;99575.19;5014494;28;20239;-80
2024/01/01 05:07:48;;;;;;;6.67;5.10;;;;;;;8.93;72.00;99577.69;5014450;28;20281;-80
2024/01/01 05:10:15;;;;;;;7.03;4.43;;;;;;;8.99;71.80;99576.66;5015120;28;20293;-81
2024/01/01 05:12:43;;;;;;;7.20;5.27;;;;;;;8.90;71.89;99584.69;5019949;28;20207;-79
2024/01/01 05:15:12;;;;;;;5.47;4.97;;;;;;;8.92;71.83;99588.16;5014901;28;20239;-80
2024/01/01 05:17:38;;;;;;;8.33;4.83;;;;;;;9.02;72.00;99584.41;5015019;28;20243;-81
2024/01/01 05:20:06;;;;;;;7.53;4.97;;;;;;;9.04;71.91;99582.63;5015935;28;20202;-80
2024/01/01 05:22:32;;;;;;;6.83;4.83;;;;;;;9.02;71.47;99584.41;5014814;28;20245;-81
2024/01/01 05:24:59;;;;;;;6.97;4.80;;;;;;;9.15;71.85;99588.38;5016065;28;20231;-81
2024/01/01 05:27:25;;;;;;;6.13;4.43;;;;;;;9.05;71.67;99586.91;5014083;28;20690;-80
2024/01/01 05:29:52;;;;;;;5.60;4.17;;;;;;;9.01;72.10;99589.66;5015814;28;20218;-81
2024/01/01 05:32:19;;;;;;;6.70;4.47;;;;;;;8.79;71.57;99591.97;5015770;28;20670;-81
2024/01/01 05:34:46;;;;;;;6.40;4.77;;;;;;;8.84;72.39;99579.66;5015372;28;20238;-80
2024/01/01 05:37:13;;;;;;;6.07;5.00;;;;;;;8.99;72.28;99578.44;5015242;28;20223;-80
2024/01/01 05:39:39;;;;;;;5.60;4.70;;;;;;;8.93;71.67;99579.44;5015562;28;20214;-80
2024/01/01 05:42:06;;;;;;;6.57;4.67;;;;;;;8.98;72.26;99594.91;5014786;28;20234;-81
2024/01/01 05:44:32;;;;;;;5.93;4.43;;;;;;;8.98;71.66;99593.19;5008365;28;20276;-80
2024/01/01 05:46:58;;;;;;;5.20;4.10;;;;;;;8.92;71.07;99615.03;5013634;28;20211;-80
2024/01/01 05:49:26;;;;;;;6.80;4.43;;;;;;;8.92;71.64;99616.78;5015455;28;20281;-80
2024/01/01 05:51:52;;;;;;;5.73;4.43;;;;;;;9.02;71.78;99623.47;5015711;28;20289;-80
2024/01/01 05:54:19;;;;;;;5.23;4.00;;;;;;;9.11;71.99;99617.16;5014808;28;20216;-80
2024/01/01 05:56:45;;;;;;;6.40;3.90;;;;;;;9.14;72.50;99617.06;5014474;28;20605;-80
2024/01/01 05:59:11;;;;;;;6.13;4.23;;;;;;;8.80;75.12;99609.25;5015683;28;20209;-80
2024/01/01 06:01:38;;;;;;;5.67;4.30;;;;;;;8.98;76.10;99542.88;5014792;28;20272;-80
2024/01/01 06:04:04;;;;;;;7.23;4.00;;;;;;;8.77;78.00;99489.66;5015474;28;20207;-81
2024/01/01 06:06:32;;;;;;;7.20;4.13;;;;;;;8.12;80.55;99455.72;5020287;28;20255;-78
2024/01/01 06:08:58;;;;;;;6.97;4.43;;;;;;;8.26;83.46;99350.53;5030560;28;20247;-79
2024/01/01 06:11:25;;;;;;;5.63;3.80;;;;;;;8.28;83.42;99304.56;5020321;28;20207;-79
2024/01/01 06:13:52;;;;;;;5.77;3.80;;;;;;;8.43;83.35;99285.13;5019855;28;20211;-78
2024/01/01 06:16:18;;;;;;;6.57;3.83;;;;;;;8.39;84.97;99260.06;5024073;28;20234;-78
2024/01/01 06:18:45;;;;;;;5.43;4.03;;;;;;;8.30;86.01;99232.56;5022034;28;20677;-79
2024/01/01 06:21:11;;;;;;;7.53;3.63;;;;;;;8.32;85.85;99202.16;5023427;28;20242;-78
2024/01/01 06:23:44;;;;;;;6.13;4.07;;;;;;;8.39;85.56;99184.66;5027903;28;20229;-78
2024/01/01 06:26:10;;;;;;;4.43;3.03;;;;;;;8.35;84.71;99192.53;5014539;28;20258;-80
2024/01/01 06:28:36;;;;;;;8.50;3.90;;;;;;;8.39;85.69;99163.84;5014474;28;20253;-80
2024/01/01 06:31:03;;;;;;;4.70;3.07;;;;;;;8.53;83.83;99183.34;5014306;28;20696;-80
2024/01/01 06:33:29;;;;;;;6.77;2.87;;;;;;;8.30;83.35;99220.41;5014143;28;20215;-80
2024/01/01 06:35:56;;;;;;;3.93;2.43;;;;;;;8.46;83.08;99222.59;5013910;28;20233;-80
2024/01/01 06:38:22;;;;;;;5.00;2.73;;;;;;;8.48;83.27;99242.47;5013534;28;20273;-80
2024/01/01 06:40:50;;;;;;;4.37;2.67;;;;;;;8.45;82.26;99249.50;5013977;28;20211;-81
2024/01/01 06:43:16;;;;;;;5.10;2.70;;;;;;;8.32;83.98;99251.56;5014486;28;20207;-80
2024/01/01 06:45:42;;;;;;;5.80;3.00;;;;;;;8.42;83.39;99244.38;5014822;28;20277;-81
2024/01/01 06:48:11;;;;;;;3.97;3.00;;;;;;;8.45;82.94;99257.31;5012809;28;20207;-81
2024/01/01 06:50:37;;;;;;;5.03;3.07;;;;;;;8.55;83.37;99251.78;5014011;28;20210;-81
2024/01/01 06:53:04;;;;;;;4.37;2.57;;;;;;;8.50;82.62;99258.88;5015266;28;20203;-80
2024/01/01 06:55:31;;;;;;;4.33;2.37;;;;;;;8.58;82.74;99278.59;5015035;28;20724;-80
2024/01/01 06:57:59;;;;;;;3.03;2.27;;;;;;;8.64;82.43;99278.41;5015380;28;20231;-80
2024/01/01 07:00:25;;;;;;;4.53;2.20;;;;;;;8.42;82.43;99286.84;5014837;28;20218;-80
2024/01/01 07:02:52;;;;;;;4.30;1.80;;;;;;;8.39;83.09;99283.47;5011568;28;20265;-80
2024/01/01 07:05:19;;;;;;;6.17;2.30;;;;;;;8.48;82.37;99281.50;5012859;28;20837;-80
2024/01/01 07:07:45;;;;;;;4.07;1.90;;;;;;;8.28;82.83;99284.59;5014178;28;20259;-81
2024/01/01 07:10:11;;;;;;;5.70;2.27;;;;;;;7.93;83.97;99285.59;5014268;28;20272;-80
2024/01/01 07:12:38;;;;;;;5.10;1.70;;;;;;;8.12;83.76;99268.56;5015274;28;20247;-80
2024/01/01 07:15:07;;;;;;;5.73;2.00;;;;;;;8.29;83.65;99262.06;5019562;28;20314;-81
2024/01/01 07:17:34;;;;;;;4.23;1.93;;;;;;;8.15;83.89;99283.25;5016399;28;20234;-80
2024/01/01 07:20:01;;;;;;;4.33;1.90;;;;;;;8.38;83.45;99271.34;5018300;28;20265;-80
2024/01/01 07:22:27;;;;;;;1.97;1.47;;;;;;;8.47;83.78;99276.31;5017969;28;20690;-81
2024/01/01 07:24:53;;;;;;;4.30;2.27;;;;;;;8.35;84.22;99273.13;5017915;28;20285;-81
2024/01/01 07:27:21;;;;;;;4.77;1.70;;;;;;;8.34;84.25;99280.97;5017895;28;20573;-81
2024/01/01 07:29:47;;;;;;;7.33;2.07;;;;;;;8.42;84.17;99265.19;5017960;28;20662;-81
2024/01/01 07:32:15;;;;;;;2.57;1.50;;;;;;;8.42;84.62;99262.59;5018876;28;20203;-80
2024/01/01 07:34:42;;;;;;;3.20;1.60;;;;;;;8.31;85.93;99261.13;5014417;28;20272;-80
2024/01/01 07:37:08;;;;;;;4.80;2.20;;;;;;;8.37;85.21;99244.50;5016655;28;20300;-81
2024/01/01 07:39:34;;;;;;;3.83;1.93;;;;;;;8.43;85.29;99251.31;5016060;28;20208;-81
2024/01/01 07:42:01;;;;;;;2.57;1.73;;;;;;;8.30;84.62;99263.75;5017266;28;20264;-81
2024/01/01 07:44:27;;;;;;;2.87;1.57;;;;;;;8.48;84.46;99259.81;5016526;28;20673;-81
2024/01/01 07:46:54;;;;;;;2.83;1.60;;;;;;;8.21;86.09;99269.25;5016348;28;20229;-80
2024/01/01 07:49:22;;;;;;;4.97;2.10;;;;;;;8.24;86.79;99232.75;5016574;28;20258;-81
2024/01/01 07:51:48;;;;;;;3.67;1.77;;;;;;;8.07;87.12;99233.25;5016982;28;20207;-80
2024/01/01 07:54:14;;;;;;;5.10;2.20;;;;;;;8.20;87.74;99216.38;5016379;28;20207;-80
2024/01/01 07:56:43;;;;;;;4.23;1.97;;;;;;;8.21;88.16;99202.50;5015638;28;20223;-81
2024/01/01 07:59:11;;;;;;;6.53;2.13;;;;;;;8.03;88.77;99196.09;5016522;28;20237;-80
2024/01/01 08:01:37;;;;;;;4.63;1.93;;;;;;;8.24;88.28;99184.19;5015969;28;20438;-80
2024/01/01 08:04:04;;;;;;;3.77;1.87;;;;;;;8.26;88.35;99190.19;5016510;28;20286;-81
2024/01/01 08:06:32;;;;;;;6.07;2.30;;;;;;;8.16;89.54;99186.19;5016407;28;20826;-81
2024/01/01 08:08:58;;;;;;;4.90;2.03;;;;;;;8.23;90.20;99164.31;5016317;28;20206;-81
2024/01/01 08:11:24;;;;;;;6.40;2.07;;;;;;;7.84;91.27;99161.13;5016549;28;20210;-81
2024/01/01 08:13:51;;;;;;;6.17;2.70;;;;;;;7.91;91.86;99145.31;5016298;28;20701;-81
2024/01/01 08:16:19;;;;;;;7.77;2.73;;;;;;;7.96;93.08;99108.81;5016402;28;20230;-81
2024/01/01 08:18:45;;;;;;;5.10;2.30;;;;;;;7.94;93.78;99092.41;5008497;28;20234;-81
2024/01/01 08:21:11;;;;;;;5.40;2.47;;;;;;;7.98;93.82;99086.22;5017888;28;20210;-81
2024/01/01 08:23:39;;;;;;;4.57;2.23;;;;;;;8.10;94.03;99075.44;5015491;28;20270;-81
2024/01/01 08:26:06;;;;;;;5.80;2.20;;;;;;;8.14;94.27;99073.59;5015229;28;20222;-81
2024/01/01 08:28:33;;;;;;;7.13;2.93;;;;;;;8.12;94.00;99067.59;5016544;28;20233;-81
2024/01/01 08:30:59;;;;;;;4.77;2.37;;;;;;;8.17;92.78;99081.31;5016248;28;20211;-81
2024/01/01 08:33:25;;;;;;;8.07;2.20;;;;;;;8.27;92.16;99093.13;5016404;28;20234;-79
2024/01/01 08:35:53;;;;;;;7.07;2.37;;;;;;;8.14;92.76;99102.19;5016748;28;20250;-81
2024/01/01 08:38:19;;;;;;;6.00;2.57;;;;;;;8.17;92.24;99104.72;5016965;28;20230;-81
2024/01/01 08:40:47;;;;;;;6.50;2.10;;;;;;;8.25;91.75;99101.88;5007339;28;20202;-81
2024/01/01 08:43:14;;;;;;;6.13;2.10;;;;;;;8.29;91.50;99119.94;5016711;28;20740;-81
2024/01/01 08:45:40;;;;;;;6.27;1.93;;;;;;;8.25;90.42;99139.13;5016828;28;20237;-81
2024/01/01 08:48:07;;;;;;;5.43;2.03;;;;;;;8.46;89.93;99158.47;5014483;28;20195;-81
2024/01/01 08:50:34;;;;;;;4.87;1.97;;;;;;;8.55;88.99;99181.56;5014808;28;20303;-81
2024/01/01 08:53:00;;;;;;;6.27;2.47;;;;;;;8.48;88.86;99195.66;5015965;28;20716;-81
2024/01/01 08:55:27;;;;;;;5.50;2.10;;;;;;;8.47;87.92;99219.13;5016172;28;20785;-80
2024/01/01 08:57:54;;;;;;;6.77;2.23;;;;;;;8.50;87.45;99238.09;5016167;28;20260;-81
2024/01/01 09:00:21;;;;;;;6.37;1.70;;;;;;;8.45;87.42;99246.91;5016532;28;20203;-81
2024/01/01 09:02:47;;;;;;;4.13;2.03;;;;;;;8.57;86.61;99256.09;5015157;28;20661;-81
2024/01/01 09:05:15;;;;;;;5.93;1.67;;;;;;;8.49;85.96;99282.34;5015850;28;20741;-81
2024/01/01 09:07:42;;;;;;;3.93;1.47;;;;;;;8.07;86.39;99291.25;5015121;28;20214;-81
2024/01/01 09:10:10;;;;;;;4.00;1.33;;;;;;;8.32;86.51;99275.84;5016551;28;20203;-81
2024/01/01 09:12:36;;;;;;;4.37;2.40;;;;;;;8.29;86.22;99282.88;5016526;28;20268;-81
2024/01/01 09:15:05;;;;;;;7.27;1.70;;;;;;;8.40;86.29;99272.16;5015929;28;20281;-80
2024/01/01 09:17:31;;;;;;;3.20;1.67;;;;;;;8.42;85.61;99294.63;5015978;28;20231;-81
2024/01/01 09:19:57;;;;;;;6.00;2.40;;;;;;;8.48;86.24;99304.03;5016575;28;20654;-80
2024/01/01 09:22:24;;;;;;;7.53;3.70;;;;;;;8.21;87.35;99283.09;5016120;28;20202;-81
2024/01/01 09:24:50;;;;;;;5.70;1.90;;;;;;;8.26;87.05;99291.59;5015913;28;20253;-81
2024/01/01 09:27:17;;;;;;;4.73;1.87;;;;;;;8.55;87.39;99272.59;5014683;28;20260;-82
2024/01/01 09:29:43;;;;;;;5.47;1.80;;;;;;;8.66;86.83;99294.81;5015806;28;20293;-81
2024/01/01 09:32:11;;;;;;;5.77;2.00;;;;;;;8.64;86.68;99288.81;5015639;28;20253;-82
2024/01/01 09:34:37;;;;;;;5.97;2.60;;;;;;;8.68;87.50;99286.09;5014960;28;20226;-82
2024/01/01 09:37:04;;;;;;;5.90;2.93;;;;;;;8.67;86.55;99289.59;5015010;28;20661;-81
2024/01/01 09:39:30;;;;;;;7.97;3.00;;;;;;;8.60;85.49;99321.88;5015274;28;20253;-81
2024/01/01 09:41:56;;;;;;;6.57;3.33;;;;;;;8.66;84.98;99336.44;5015650;28;20206;-81
2024/01/01 09:44:24;;;;;;;6.40;1.83;;;;;;;8.82;85.25;99352.47;5016136;28;20206;-81
2024/01/01 09:46:50;;;;;;;3.53;1.43;;;;;;;8.84;84.99;99348.06;5013356;28;20245;-81
2024/01/01 09:49:18;;;;;;;5.53;1.50;;;;;;;8.87;85.03;99354.03;5011402;28;20614;-81
2024/01/01 09:51:44;;;;;;;3.80;1.87;;;;;;;8.95;84.46;99369.44;5015485;28;20265;-81
2024/01/01 09:54:11;;;;;;;5.03;1.57;;;;;;;8.95;84.71;99366.81;5015829;28;20628;-81
2024/01/01 09:56:37;;;;;;;4.27;1.80;;;;;;;8.86;83.79;99375.78;5018243;28;20705;-81
2024/01/01 09:59:03;;;;;;;2.83;1.23;;;;;;;8.87;82.69;99398.28;5024128;28;20265;-82
2024/01/01 10:01:33;;;;;;;4.60;1.37;;;;;;;8.77;81.65;99435.88;5021784;28;20638;-81
2024/01/01 10:04:02;;;;;;;2.83;1.10;;;;;;;8.74;80.49;99482.78;5023005;28;20632;-81
2024/01/01 10:06:30;;;;;;;3.10;1.37;;;;;;;8.74;81.73;99468.03;5019106;28;20234;-81
2024/01/01 10:09:08;;;;;;;3.03;1.30;;;;;;;8.82;81.62;99469.56;5018205;28;20298;-81
2024/01/01 10:11:38;;;;;;;3.10;0.97;;;;;;;8.71;81.16;99478.50;5019639;28;20211;-81
2024/01/01 10:14:05;;;;;;;3.70;1.40;;;;;;;8.93;81.74;99457.97;5023501;28;20230;-81
2024/01/01 10:16:32;;;;;;;4.60;1.57;;;;;;;8.92;81.79;99458.88;5021105;28;20232;-82
2024/01/01 10:19:00;;;;;;;6.40;1.27;;;;;;;8.77;81.66;99472.28;5022965;28;20224;-81
2024/01/01 10:21:29;;;;;;;5.13;1.63;;;;;;;8.75;81.03;99485.34;5021006;28;20964;-81
2024/01/01 10:23:58;;;;;;;4.57;1.50;;;;;;;8.83;81.51;99500.75;5023103;28;20213;-82
2024/01/01 10:26:25;;;;;;;1.70;1.10;;;;;;;8.93;81.25;99491.78;5026400;28;20288;-81
2024/01/01 10:28:51;;;;;;;2.60;1.00;;;;;;;8.98;81.70;99501.22;5027828;28;20226;-81
2024/01/01 10:31:18;;;;;;;3.90;1.70;;;;;;;8.45;83.66;99487.00;5025855;28;20258;-81
2024/01/01 10:33:49;;;;;;;5.07;1.53;;;;;;;8.79;85.08;99434.06;5023874;28;20210;-81
2024/01/01 10:36:16;;;;;;;3.67;1.50;;;;;;;8.93;85.92;99399.84;5022898;28;20222;-81
2024/01/01 10:38:44;;;;;;;7.43;3.03;;;;;;;9.00;85.88;99387.50;5022278;28;20234;-81
2024/01/01 10:41:13;;;;;;;5.10;3.00;;;;;;;8.45;89.55;99349.19;5023634;28;20619;-81
2024/01/01 10:43:40;;;;;;;7.93;2.70;;;;;;;8.81;88.78;99319.56;5024820;28;20210;-81
2024/01/01 10:46:07;;;;;;;4.93;1.50;;;;;;;8.89;88.05;99313.22;5026214;28;20215;-81
2024/01/01 10:48:34;;;;;;;4.50;1.70;;;;;;;8.69;86.45;99331.16;5024053;28;20257;-80
2024/01/01 10:51:11;;;;;;;2.93;0.80;;;;;;;8.52;86.96;99349.84;5027099;28;20200;-81
2024/01/01 10:53:59;;;;;;;1.73;1.00;;;;;;;8.46;87.83;99327.50;5022705;28;20195;-81
2024/01/01 10:56:40;;;;;;;1.83;0.90;;;;;;;8.37;87.36;99326.88;5025697;28;20230;-81
2024/01/01 10:59:17;;;;;;;1.77;1.03;;;;;;;8.60;87.50;99324.47;5027199;28;20223;-81
2024/01/01 11:01:45;;;;;;;2.97;0.90;;;;;;;8.62;87.74;99324.44;5024376;28;20206;-81
2024/01/01 11:04:12;;;;;;;1.83;1.37;;;;;;;8.71;87.49;99321.56;5031139;28;20229;-81
2024/01/01 11:06:44;;;;;;;2.27;1.10;;;;;;;8.57;85.98;99339.34;5028685;28;20578;-81
2024/01/01 11:09:31;;;;;;;2.37;0.60;;;;;;;8.75;85.94;99344.84;5024175;28;20262;-80
2024/01/01 11:12:00;;;;;;;2.13;0.90;;;;;;;8.79;85.50;99347.38;5026873;28;20198;-80
2024/01/01 11:14:28;;;;;;;1.93;0.93;;;;;;;8.71;85.01;99371.84;5026095;28;20229;-81
2024/01/01 11:16:56;;;;;;;1.03;0.50;;;;;;;8.75;84.37;99398.63;5027489;28;20227;-81
2024/01/01 11:19:42;;;;;;;1.73;0.70;;;;;;;8.49;84.64;99408.00;5026408;28;20325;-80
2024/01/01 11:22:30;;;;;;;2.60;0.80;;;;;;;8.69;85.52;99383.19;5025554;28;20204;-80
2024/01/01 11:24:59;;;;;;;1.30;0.80;;;;;;;8.79;85.25;99392.44;5016865;28;20222;-79
2024/01/01 11:27:28;;;;;;;1.73;0.70;;;;;;;8.74;84.00;99415.13;5027201;28;20207;-81
2024/01/01 11:29:59;;;;;;;1.70;0.60;;;;;;;8.81;84.50;99416.66;5027232;28;20199;-80
2024/01/01 11:32:25;;;;;;;2.80;0.90;;;;;;;8.90;83.18;99432.03;5025784;28;20198;-80
2024/01/01 11:35:06;;;;;;;3.00;0.87;;;;;;;8.73;83.09;99452.47;5021071;28;20280;-80
2024/01/01 11:37:32;;;;;;;5.03;0.80;;;;;;;8.80;83.43;99443.59;5009982;28;20213;-80
2024/01/01 11:39:59;;;;;;;11.43;1.30;;;;;;;8.41;83.13;99476.69;5013078;28;20300;-81
2024/01/01 11:42:27;;;;;;;1.33;0.80;;;;;;;8.80;82.93;99461.81;5012899;28;20203;-81